Terminal Aerodrome Forecast
Issued by NWS

Home | Current Version | Previous Version | Text Only | Print | Product List | Glossary On
Versions: 1 2 3 4 5 6 7 8 9 10 11 12 13 14 15 16 17 18 19 20 21
000
FTUS41 KBOX 171132
TAFFMH
TAF
KFMH 171132Z 1712/1812 08006KT 2SM -RASN BR OVC003
     FM171500 04006KT 4SM -RA BR OVC008
     FM171900 36010KT 4SM BR VCSH OVC008
     FM180000 30010KT P6SM OVC010
     FM180400 30010G19KT P6SM BKN040
     FM180600 31010G20KT P6SM SCT060=

USA.gov is the U.S. government's official web portal to all federal, state and local government web resources and services.